logo
Search for airport 
image banner adimage banner adimage banner ad
image banner ad

EDGW - Wolfhagen"Graner Berg"

Located in Wolfhagen, Germany

ICAO - EDGW, IATA -

Data provided by Airmate  

General information

Coordinates: N51°18'25" E9°10'31"
Elevation is 1027 feet MSL.
Magnetic variation is 2.0000° East
View others Airports in Hesse

Operational data

Special qualification required
Current time UTC:
Current local time:
Weather at : EDVK - Kassel-Calden ( 20 km )
METAR: EDVK 141520Z 26005KT 190V320 CAVOK 23/10 Q1013
TAF: TAF EDVK 141400Z 1415/1424 22008KT CAVOK BECMG 1418/1420 VRB03KT
View NOTAMs / SUP AIP / TFR affecting this airport [VIEW]
Communications frequencies: [VIEW]

Runways:

RWY identifierQFULength (ft)Width (ft)SurfaceLDA (ft)
15152°164098GRASS1640
33332°164098GRASS1640

Airport contact information

Address: Wolfhagen Germany

Other aviation service providers

Aviation club (not for profit)

Luftsportvereinigung Wolfhagen E.V.

Luftsportvereinigung Wolfhagen E.V.
news@edgw.de+4916097403887 
+4916097403887 

Satellite view of EDGW